Terminal Aerodrome Forecast
Issued by NWS Albany, NY

Home | Current Version | Previous Version | Text Only | Print | Product List | Glossary On
Versions: 1 2 3 4 5 6 7 8 9 10 11 12 13 14 15 16 17 18
000
FTUS41 KALY 221100 RRA
TAFGFL
TAF
KGFL 221146Z 2212/2312 36009KT P6SM FEW017 OVC025
      TEMPO 2212/2215 BKN015 OVC025
     FM221700 01011KT P6SM -SHRA SCT015 OVC025
     FM222100 01012G18KT 4SM -RA BR SCT008 OVC015
     FM230500 36012G18KT 3SM -RA BR BKN008 OVC012=

USA.gov is the U.S. government's official web portal to all federal, state and local government web resources and services.